Flugplatz Ahrenlohe

Für EDHO sind keine METAR/TAF Berichte vorhanden.
Es werden die Flugwettermeldungen vom Flugplatz Hamburg in 18 km Entfernung angezeigt.

Bericht für EDDH

vom 25.01. um 23:20 UTC

Wind 9 kt aus 220°

Sichtweite 6000 m

aufgebrochene Bewölkung in 600 ft

Temperatur 2.0°C

Taupunkt 1.0°C

Luftfeuchtigkeit 93%

Luftdruck 1019 hPa

EDDH 252320Z 22009KT 6000 BKN006 02/01 Q1019 TEMPO 4500 BR BKN004

Prognose für EDDH

vom 25.01. um 00:00 UTC

Zwischen 00:00 UTC und 00:00 UTC

Wind 7 kt aus 190°

Sichtweite 6000 m

bedeckt in 600 ft


Zwischen 00:00 UTC und 00:00 UTC zeitweise

Sichtweite 3500 m

schwacher Sprühregen

bedeckt in 400 ft


Zwischen 00:00 UTC und 00:00 UTC zeitweise mit einer Wahrscheinlichkeit von 30%

Sichtweite 2000 m

feuchter Dunst


Zwischen 00:00 und 00:00 UTC übergehend zu

Wind 7 kt aus 190°

Sichtweite 6000 m

aufgelockert bewölkt in 1500 ft


Am 27.01. zwischen 00:00 und 00:00 UTC übergehend zu

Wind 12 kt aus 190°

Sichtweite 6000 m

aufgelockert bewölkt in 1500 ft

TAF EDDH 252300Z 2600/2706 19007KT 6000 OVC006 TEMPO 2600/2610 3500 -DZ OVC004 PROB30 TEMPO 2603/2610 2000 BR BECMG 2612/2615 SCT015 BECMG 2703/2706 19012KT
Impressum